Time;durP1;ratioP1;P1;durP2;ratioP2;P2;SDS_P1;SDS_P2;PMS_P1;PMS_P2;Temp;Humidity;BMP_temperature;BMP_pressure;BME280_temperature;BME280_humidity;BME280_pressure;Samples;Min_cycle;Max_cycle;Signal;HPM_P1;HPM_P2
2022/01/30 00:01:50;;;;;;;12.40;3.58;;;15.40;49.30;;;;;;5012927;28;20041;-66
2022/01/30 00:04:17;;;;;;;12.52;3.20;;;15.40;49.30;;;;;;5012970;28;20026;-66
2022/01/30 00:06:44;;;;;;;10.85;2.95;;;15.40;49.80;;;;;;5011822;28;20014;-66
2022/01/30 00:09:17;;;;;;;11.25;2.95;;;15.40;49.20;;;;;;5012600;28;20010;-66
2022/01/30 00:11:47;;;;;;;10.90;3.38;;;15.40;49.20;;;;;;5012591;28;20018;-65
2022/01/30 00:14:16;;;;;;;11.70;2.92;;;15.30;49.10;;;;;;5012774;28;20028;-65
2022/01/30 00:16:42;;;;;;;10.27;2.70;;;15.30;49.20;;;;;;5012652;28;20014;-67
2022/01/30 00:21:46;;;;;;;11.45;2.75;;;15.30;49.20;;;;;;5011435;28;20088;-66
2022/01/30 00:24:25;;;;;;;8.27;2.72;;;15.40;49.20;;;;;;5027757;28;20023;-65
2022/01/30 00:26:51;;;;;;;8.13;2.65;;;15.30;49.10;;;;;;5013124;28;20020;-65
2022/01/30 00:29:17;;;;;;;8.65;2.47;;;15.30;49.00;;;;;;5011379;28;20029;-64
2022/01/30 00:31:43;;;;;;;8.30;2.95;;;15.30;49.00;;;;;;5012635;28;20493;-64
2022/01/30 00:34:09;;;;;;;9.63;2.90;;;15.30;49.00;;;;;;5012636;28;20034;-64
2022/01/30 00:36:35;;;;;;;8.52;2.75;;;15.30;49.00;;;;;;5012602;28;20500;-69
2022/01/30 00:39:01;;;;;;;10.82;3.28;;;15.30;49.00;;;;;;5012618;28;20022;-64
2022/01/30 00:41:28;;;;;;;11.43;3.20;;;15.30;49.00;;;;;;5016070;28;20042;-64
2022/01/30 00:43:56;;;;;;;11.18;3.05;;;15.30;49.00;;;;;;5015399;28;20033;-65
2022/01/30 00:46:21;;;;;;;11.82;3.08;;;15.40;48.90;;;;;;5016200;28;20014;-65
2022/01/30 00:48:47;;;;;;;8.60;2.90;;;15.30;48.90;;;;;;5016133;28;20021;-65
2022/01/30 00:51:16;;;;;;;12.88;3.55;;;15.30;48.90;;;;;;5016347;28;20030;-66
2022/01/30 00:53:43;;;;;;;9.38;2.88;;;15.30;48.90;;;;;;5016161;28;20014;-66
2022/01/30 00:56:08;;;;;;;10.98;2.53;;;15.30;48.90;;;;;;5015957;28;20018;-65
2022/01/30 00:58:35;;;;;;;9.77;2.70;;;15.30;48.90;;;;;;5014859;28;20492;-65
2022/01/30 01:01:01;;;;;;;9.05;2.90;;;15.30;48.80;;;;;;5014756;28;20038;-66
2022/01/30 01:03:28;;;;;;;9.60;2.70;;;15.30;48.90;;;;;;5016079;28;20037;-65
2022/01/30 01:05:54;;;;;;;10.65;2.95;;;15.30;48.80;;;;;;5016103;28;20048;-65
2022/01/30 01:08:32;;;;;;;7.82;2.63;;;15.30;48.80;;;;;;5014479;28;20477;-65
2022/01/30 01:11:25;;;;;;;9.75;3.05;;;15.30;48.80;;;;;;5015736;28;20026;-65
2022/01/30 01:24:25;;;;;;;10.90;2.75;;;15.30;48.70;;;;;;5014666;28;20032;-66
2022/01/30 01:26:51;;;;;;;9.93;2.80;;;15.30;48.70;;;;;;5015686;28;20026;-65
2022/01/30 01:29:23;;;;;;;9.43;2.80;;;15.20;48.60;;;;;;5018404;28;20010;-65
2022/01/30 01:31:50;;;;;;;9.38;2.50;;;15.20;48.60;;;;;;5017368;28;20466;-65
2022/01/30 01:36:51;;;;;;;8.68;2.90;;;15.30;48.80;;;;;;5016758;28;20037;-65
2022/01/30 01:39:18;;;;;;;8.05;2.65;;;15.20;48.60;;;;;;5017984;28;20440;-65
2022/01/30 01:41:43;;;;;;;13.52;3.33;;;15.20;48.70;;;;;;5015717;28;20054;-65
2022/01/30 01:44:17;;;;;;;8.75;3.17;;;15.20;48.60;;;;;;5014895;28;20045;-65
2022/01/30 01:46:44;;;;;;;9.95;2.78;;;15.20;48.60;;;;;;5014955;28;20089;-65
2022/01/30 01:49:18;;;;;;;7.65;2.47;;;15.20;48.60;;;;;;5013800;28;20033;-64
2022/01/30 01:51:50;;;;;;;8.43;2.90;;;15.20;48.50;;;;;;5029537;28;20030;-66
2022/01/30 01:54:15;;;;;;;8.02;2.78;;;15.20;48.50;;;;;;5013617;28;20017;-65
2022/01/30 01:56:44;;;;;;;9.15;3.08;;;15.20;48.50;;;;;;5014974;28;20032;-65
2022/01/30 01:59:12;;;;;;;12.98;3.17;;;15.20;48.50;;;;;;5013497;28;20026;-66
2022/01/30 02:01:38;;;;;;;8.57;3.13;;;15.20;48.50;;;;;;5014572;28;20489;-66
2022/01/30 02:04:04;;;;;;;7.97;2.60;;;15.20;48.50;;;;;;5014850;28;20068;-66
2022/01/30 02:06:30;;;;;;;8.95;2.92;;;15.20;48.50;;;;;;5014520;28;20021;-66
2022/01/30 02:09:07;;;;;;;6.55;2.60;;;15.20;48.50;;;;;;5014415;28;20484;-65
2022/01/30 02:11:38;;;;;;;8.93;2.75;;;15.20;48.50;;;;;;5014445;28;20059;-65
2022/01/30 02:26:59;;;;;;;11.77;2.85;;;15.20;48.40;;;;;;5013063;28;20160;-66
2022/01/30 02:29:25;;;;;;;6.60;2.55;;;15.20;48.40;;;;;;5014185;28;20014;-65
2022/01/30 02:31:55;;;;;;;7.60;2.88;;;15.20;48.30;;;;;;5012917;28;20029;-65
2022/01/30 02:34:30;;;;;;;9.77;2.42;;;15.10;48.30;;;;;;5014108;28;20109;-65
2022/01/30 02:36:56;;;;;;;9.43;2.70;;;15.10;48.30;;;;;;5013969;28;20014;-66
2022/01/30 02:39:22;;;;;;;7.43;2.25;;;15.20;48.40;;;;;;5012838;28;20025;-65
2022/01/30 02:41:48;;;;;;;7.45;2.53;;;15.20;48.30;;;;;;5013746;28;20049;-65
2022/01/30 02:46:46;;;;;;;8.25;2.80;;;15.20;48.30;;;;;;5012718;28;20105;-65
2022/01/30 02:51:50;;;;;;;8.48;2.53;;;15.20;48.30;;;;;;5014006;28;20033;-65
2022/01/30 02:54:19;;;;;;;7.32;2.17;;;15.10;48.20;;;;;;5012630;28;20037;-66
2022/01/30 02:56:44;;;;;;;7.07;2.42;;;15.10;48.20;;;;;;5012477;28;20029;-65
2022/01/30 02:59:10;;;;;;;10.15;2.70;;;15.10;48.20;;;;;;5013590;28;20022;-65
2022/01/30 03:01:37;;;;;;;9.88;2.75;;;15.10;48.20;;;;;;5012328;28;20044;-65
2022/01/30 03:04:03;;;;;;;8.65;2.67;;;15.10;48.20;;;;;;5011871;28;20010;-66
2022/01/30 03:06:31;;;;;;;8.18;2.45;;;15.10;48.20;;;;;;5013551;28;20018;-65
2022/01/30 03:08:57;;;;;;;9.43;2.35;;;15.10;48.20;;;;;;5013565;28;20018;-65
2022/01/30 03:11:30;;;;;;;9.68;2.53;;;15.10;48.20;;;;;;5012283;28;20028;-65
2022/01/30 03:13:55;;;;;;;10.32;2.90;;;15.10;48.20;;;;;;5013381;28;20029;-65
2022/01/30 03:16:22;;;;;;;9.05;2.70;;;15.10;48.10;;;;;;5013258;28;20029;-64
2022/01/30 03:18:48;;;;;;;9.55;2.50;;;15.10;48.20;;;;;;5013271;28;20022;-65
2022/01/30 03:21:15;;;;;;;8.48;2.85;;;15.10;48.20;;;;;;5013149;28;20040;-65
2022/01/30 03:23:41;;;;;;;6.38;2.08;;;15.10;48.20;;;;;;5013172;28;20014;-65
2022/01/30 03:26:07;;;;;;;7.72;2.42;;;15.10;48.50;;;;;;5011973;28;20022;-65
2022/01/30 03:28:33;;;;;;;6.95;2.60;;;15.10;48.20;;;;;;5013188;28;20029;-66
2022/01/30 03:31:03;;;;;;;9.32;2.53;;;15.10;48.20;;;;;;5013396;28;20037;-64
2022/01/30 03:33:29;;;;;;;7.18;2.10;;;15.10;48.10;;;;;;5012256;28;20026;-65
2022/01/30 03:35:55;;;;;;;9.40;2.75;;;15.10;48.10;;;;;;5013165;28;20515;-65
2022/01/30 03:38:21;;;;;;;9.05;2.47;;;15.10;48.10;;;;;;5013075;28;20022;-65
2022/01/30 03:40:48;;;;;;;9.77;2.53;;;15.10;48.10;;;;;;5012715;28;20033;-64
2022/01/30 03:43:14;;;;;;;9.00;2.72;;;15.10;48.10;;;;;;5012893;28;20037;-64
2022/01/30 03:45:40;;;;;;;7.90;2.42;;;15.10;48.00;;;;;;5013166;28;20029;-64
2022/01/30 03:48:06;;;;;;;8.10;2.50;;;15.10;48.00;;;;;;5011957;28;20026;-64
2022/01/30 03:50:33;;;;;;;7.22;2.28;;;15.10;47.90;;;;;;5011656;28;20022;-64
2022/01/30 03:52:59;;;;;;;7.20;2.55;;;15.20;47.90;;;;;;5013118;28;20028;-64
2022/01/30 03:55:25;;;;;;;6.90;2.33;;;15.10;47.90;;;;;;5011641;28;20019;-64
2022/01/30 03:57:52;;;;;;;7.65;2.45;;;15.20;47.70;;;;;;5012769;28;20030;-64
2022/01/30 04:00:18;;;;;;;7.82;2.30;;;15.30;47.50;;;;;;5013085;28;20010;-64
2022/01/30 04:02:44;;;;;;;7.97;2.53;;;15.50;47.10;;;;;;5012997;28;20026;-64
2022/01/30 04:05:11;;;;;;;8.10;2.45;;;15.60;46.60;;;;;;5013822;28;20022;-64
2022/01/30 04:07:37;;;;;;;7.72;2.33;;;15.80;46.10;;;;;;5012992;28;20393;-64
2022/01/30 04:10:04;;;;;;;6.50;2.40;;;16.00;45.70;;;;;;5013049;28;20481;-64
2022/01/30 04:12:30;;;;;;;7.00;2.40;;;16.10;45.40;;;;;;5011767;28;20006;-64
2022/01/30 04:14:57;;;;;;;6.50;2.17;;;16.10;45.30;;;;;;5014975;28;20024;-64
2022/01/30 04:17:23;;;;;;;8.85;2.35;;;16.20;45.10;;;;;;5016560;28;20089;-64
2022/01/30 04:19:49;;;;;;;7.10;2.30;;;16.30;44.90;;;;;;5017122;28;20157;-64
2022/01/30 04:22:15;;;;;;;7.97;2.15;;;16.30;44.70;;;;;;5015504;28;20101;-64
2022/01/30 04:24:41;;;;;;;7.55;2.58;;;16.40;44.60;;;;;;5016449;28;20020;-64
2022/01/30 04:27:07;;;;;;;6.40;2.20;;;16.40;44.40;;;;;;5016745;28;20010;-64
2022/01/30 04:29:37;;;;;;;7.28;2.38;;;16.50;44.30;;;;;;5015385;28;20388;-64
2022/01/30 04:32:03;;;;;;;6.53;2.50;;;16.60;44.10;;;;;;5015256;28;20018;-65
2022/01/30 04:34:30;;;;;;;5.20;2.13;;;16.60;43.90;;;;;;5015252;28;20030;-64
2022/01/30 04:53:40;;;;;;;6.70;2.30;;;16.90;43.10;;;;;;5015910;28;20037;-64
2022/01/30 04:59:05;;;;;;;6.60;1.95;;;17.00;43.00;;;;;;5015144;28;20489;-64
2022/01/30 05:09:26;;;;;;;5.20;1.83;;;17.10;42.80;;;;;;5014847;28;20018;-64
2022/01/30 05:11:53;;;;;;;7.00;2.13;;;17.10;42.60;;;;;;5015632;28;20512;-66
2022/01/30 05:14:22;;;;;;;6.22;2.15;;;17.10;42.50;;;;;;5015565;28;20484;-64
2022/01/30 05:16:48;;;;;;;6.53;2.30;;;17.10;42.40;;;;;;5015468;28;20018;-64
2022/01/30 05:19:16;;;;;;;5.65;2.30;;;17.20;42.50;;;;;;5014322;28;20557;-66
2022/01/30 05:21:42;;;;;;;5.10;2.00;;;17.10;42.30;;;;;;5015514;28;20495;-65
2022/01/30 05:24:08;;;;;;;6.50;2.30;;;17.20;42.30;;;;;;5015409;28;20018;-65
2022/01/30 05:26:35;;;;;;;8.10;2.78;;;17.20;42.30;;;;;;5013313;28;20026;-64
2022/01/30 05:29:03;;;;;;;5.90;2.00;;;17.20;42.20;;;;;;5014225;28;20010;-65
2022/01/30 05:31:29;;;;;;;4.88;1.92;;;17.20;42.20;;;;;;5015518;28;20021;-65
2022/01/30 05:33:56;;;;;;;6.45;2.30;;;17.30;42.10;;;;;;5014335;28;20034;-65
2022/01/30 05:36:21;;;;;;;7.07;2.28;;;17.30;41.90;;;;;;5015135;28;20018;-65
2022/01/30 05:38:49;;;;;;;6.43;2.10;;;17.30;41.90;;;;;;5015052;28;20021;-65
2022/01/30 05:41:15;;;;;;;6.47;2.13;;;17.30;42.00;;;;;;5014863;28;20041;-65
2022/01/30 05:43:42;;;;;;;6.75;2.00;;;17.30;42.50;;;;;;4997412;28;20392;-65
2022/01/30 05:46:15;;;;;;;5.85;2.13;;;17.30;41.90;;;;;;5015062;28;20102;-65
2022/01/30 05:48:41;;;;;;;8.05;2.42;;;17.30;41.90;;;;;;5014930;28;20014;-65
2022/01/30 05:51:07;;;;;;;5.30;1.90;;;17.40;41.80;;;;;;5013673;28;20664;-65
2022/01/30 05:53:35;;;;;;;6.45;2.00;;;17.40;41.80;;;;;;5015134;28;20022;-65
2022/01/30 05:56:01;;;;;;;5.70;2.33;;;17.40;41.70;;;;;;5014801;28;20022;-65
2022/01/30 05:58:27;;;;;;;6.20;2.33;;;17.40;41.60;;;;;;5013817;28;20087;-65
2022/01/30 06:00:53;;;;;;;5.47;1.77;;;17.50;41.60;;;;;;5013422;28;20485;-65
2022/01/30 06:03:19;;;;;;;5.60;1.90;;;17.50;41.50;;;;;;5014842;28;20018;-64
2022/01/30 06:05:46;;;;;;;5.68;2.08;;;17.50;41.40;;;;;;4996999;28;20520;-65
2022/01/30 06:08:37;;;;;;;5.32;2.05;;;17.50;41.40;;;;;;5014565;28;20025;-65
2022/01/30 06:11:01;;;;;;;7.15;1.85;;;17.50;41.30;;;;;;5014463;28;20100;-66
2022/01/30 06:13:29;;;;;;;5.53;2.08;;;17.50;41.30;;;;;;5014676;28;20026;-65
2022/01/30 06:15:55;;;;;;;7.05;2.30;;;17.50;41.30;;;;;;5014340;28;20503;-65
2022/01/30 06:18:21;;;;;;;7.40;2.40;;;17.50;41.30;;;;;;5013461;28;20018;-65
2022/01/30 06:20:49;;;;;;;4.60;1.92;;;17.50;41.20;;;;;;5014489;28;20120;-65
2022/01/30 06:23:16;;;;;;;8.35;2.08;;;17.50;41.20;;;;;;5014522;28;20026;-65
2022/01/30 06:25:42;;;;;;;6.85;2.10;;;17.60;41.10;;;;;;5029475;28;20021;-65
2022/01/30 06:28:08;;;;;;;6.85;2.33;;;17.60;41.10;;;;;;5014176;28;20018;-65
2022/01/30 06:30:33;;;;;;;7.18;2.10;;;17.60;41.00;;;;;;5014129;28;20388;-65
2022/01/30 06:32:59;;;;;;;7.07;2.10;;;17.60;41.00;;;;;;5012978;28;20018;-65
2022/01/30 06:35:28;;;;;;;5.25;1.90;;;17.60;41.50;;;;;;5012911;28;20018;-65
2022/01/30 06:37:58;;;;;;;5.63;2.00;;;17.60;40.90;;;;;;5014018;28;20026;-65
2022/01/30 06:40:24;;;;;;;4.57;2.00;;;17.60;40.90;;;;;;5012687;28;20076;-65
2022/01/30 06:42:50;;;;;;;4.57;1.60;;;17.70;40.80;;;;;;5029048;28;20042;-65
2022/01/30 06:45:19;;;;;;;5.60;2.00;;;17.70;40.80;;;;;;5013947;28;20076;-66
2022/01/30 06:47:44;;;;;;;6.85;2.30;;;17.70;40.70;;;;;;5029136;28;20026;-65
2022/01/30 06:50:11;;;;;;;6.80;2.50;;;17.70;40.60;;;;;;5014079;28;20018;-66
2022/01/30 06:52:37;;;;;;;5.82;2.13;;;17.70;40.60;;;;;;5013832;28;20100;-65
2022/01/30 06:55:03;;;;;;;5.47;2.17;;;17.70;40.60;;;;;;5012521;28;20017;-65
2022/01/30 06:57:29;;;;;;;6.07;2.25;;;17.70;40.50;;;;;;5013975;28;20029;-65
2022/01/30 06:59:56;;;;;;;5.13;1.73;;;17.70;40.40;;;;;;5013627;28;20404;-66
2022/01/30 07:02:22;;;;;;;5.38;2.15;;;17.70;40.40;;;;;;5013531;28;20104;-65
2022/01/30 07:04:48;;;;;;;6.57;1.80;;;17.70;40.50;;;;;;5012329;28;20537;-66
2022/01/30 07:07:14;;;;;;;7.25;2.10;;;17.70;40.40;;;;;;5013520;28;20018;-66
2022/01/30 07:09:41;;;;;;;4.45;1.75;;;17.70;40.40;;;;;;5013687;28;20018;-66
2022/01/30 07:12:07;;;;;;;7.50;2.20;;;17.70;40.40;;;;;;5012142;28;20017;-65
2022/01/30 07:14:33;;;;;;;7.95;2.38;;;17.70;40.40;;;;;;5012095;28;20133;-64
2022/01/30 07:17:00;;;;;;;5.57;2.05;;;17.80;40.40;;;;;;5013293;28;20018;-65
2022/01/30 07:19:26;;;;;;;5.45;2.08;;;17.70;40.30;;;;;;5013255;28;20032;-64
2022/01/30 07:21:52;;;;;;;4.72;1.67;;;17.80;40.40;;;;;;5013134;28;20037;-64
2022/01/30 07:24:18;;;;;;;6.10;2.08;;;17.80;40.30;;;;;;5013250;28;20010;-64
2022/01/30 07:26:46;;;;;;;6.68;2.13;;;17.80;40.30;;;;;;4995620;28;20022;-64
2022/01/30 07:29:13;;;;;;;5.22;2.00;;;17.80;40.20;;;;;;5013427;28;20076;-64
2022/01/30 07:31:38;;;;;;;5.55;2.03;;;17.80;40.20;;;;;;5013151;28;20493;-64
2022/01/30 07:34:06;;;;;;;4.65;1.73;;;17.80;40.10;;;;;;5013449;28;20037;-64
2022/01/30 07:36:35;;;;;;;5.05;2.20;;;17.80;40.10;;;;;;5013285;28;20025;-64
2022/01/30 07:39:02;;;;;;;5.32;1.80;;;17.80;40.10;;;;;;5011852;28;20042;-64
2022/01/30 07:41:30;;;;;;;6.85;2.50;;;17.80;40.10;;;;;;5012809;28;20046;-64
2022/01/30 07:43:57;;;;;;;4.68;2.00;;;17.80;40.10;;;;;;5011775;28;20117;-64
2022/01/30 07:46:25;;;;;;;5.05;1.65;;;17.80;40.00;;;;;;5013184;28;20029;-64
2022/01/30 07:48:52;;;;;;;4.63;1.83;;;17.80;40.10;;;;;;5012779;28;20025;-64
2022/01/30 07:51:17;;;;;;;5.88;2.00;;;17.80;40.10;;;;;;5012891;28;20485;-64
2022/01/30 07:53:44;;;;;;;8.15;2.67;;;17.80;40.60;;;;;;5013064;28;20022;-64
2022/01/30 07:56:12;;;;;;;6.25;1.75;;;17.70;40.20;;;;;;5012817;28;20480;-64
2022/01/30 07:58:38;;;;;;;5.38;2.00;;;17.70;40.20;;;;;;5012800;28;20033;-64
2022/01/30 08:01:04;;;;;;;5.28;1.98;;;17.70;40.20;;;;;;5012607;28;20026;-64
2022/01/30 08:03:31;;;;;;;5.32;2.10;;;17.70;40.30;;;;;;5013013;28;20088;-64
2022/01/30 08:06:00;;;;;;;5.72;1.83;;;17.60;40.30;;;;;;5011820;28;20036;-64
2022/01/30 08:08:26;;;;;;;6.80;2.05;;;17.60;40.30;;;;;;5012798;28;20085;-64
2022/01/30 08:10:52;;;;;;;6.13;2.05;;;17.60;40.30;;;;;;5011593;28;20046;-64
2022/01/30 08:13:19;;;;;;;5.88;2.03;;;17.50;40.40;;;;;;5012691;28;20021;-64
2022/01/30 08:15:46;;;;;;;7.03;2.42;;;17.50;40.50;;;;;;5012915;28;20026;-64
2022/01/30 08:18:11;;;;;;;5.90;2.00;;;17.50;40.50;;;;;;5011494;28;20010;-64
2022/01/30 08:20:38;;;;;;;6.85;2.10;;;17.40;40.50;;;;;;5011746;28;20535;-64
2022/01/30 08:23:10;;;;;;;6.93;2.25;;;17.40;40.60;;;;;;5011398;28;20061;-65
2022/01/30 08:25:36;;;;;;;5.45;1.70;;;17.40;40.70;;;;;;5012583;28;20018;-66
2022/01/30 08:28:03;;;;;;;5.55;2.25;;;17.30;40.70;;;;;;5012481;28;20023;-64
2022/01/30 08:30:30;;;;;;;6.28;2.10;;;17.30;40.80;;;;;;5012432;28;20385;-65
2022/01/30 08:32:58;;;;;;;7.13;2.08;;;17.30;40.90;;;;;;5011219;28;20026;-65
2022/01/30 08:35:24;;;;;;;6.55;2.22;;;17.20;40.90;;;;;;5011306;28;20010;-65
2022/01/30 08:37:50;;;;;;;5.78;2.10;;;17.20;41.10;;;;;;4994800;28;20029;-65
2022/01/30 08:40:19;;;;;;;7.05;2.28;;;17.10;41.20;;;;;;5012335;28;20041;-64
2022/01/30 08:42:46;;;;;;;7.32;2.50;;;17.10;41.30;;;;;;5012308;28;20076;-65
2022/01/30 08:45:13;;;;;;;6.47;2.10;;;17.10;41.30;;;;;;5012341;28;20015;-65
2022/01/30 08:47:41;;;;;;;6.90;2.00;;;17.10;41.40;;;;;;5011443;28;20018;-65
2022/01/30 08:50:08;;;;;;;5.78;2.00;;;17.10;41.20;;;;;;5011112;28;20481;-66
2022/01/30 08:52:34;;;;;;;7.63;2.13;;;17.10;41.10;;;;;;5011065;28;20148;-65
2022/01/30 08:55:01;;;;;;;6.55;2.40;;;17.20;41.10;;;;;;5012550;28;20020;-65
2022/01/30 08:57:28;;;;;;;5.60;2.17;;;17.20;41.10;;;;;;5012311;28;20021;-65
2022/01/30 08:59:55;;;;;;;5.82;1.80;;;17.30;41.00;;;;;;5011027;28;20018;-65
2022/01/30 09:02:22;;;;;;;7.18;2.08;;;17.40;40.70;;;;;;5015453;28;20033;-65
2022/01/30 09:04:48;;;;;;;6.28;2.40;;;17.50;40.50;;;;;;5015793;28;20052;-65
2022/01/30 09:07:14;;;;;;;7.00;2.33;;;17.60;40.30;;;;;;5015779;28;20418;-65
2022/01/30 09:09:41;;;;;;;6.88;2.08;;;17.70;40.20;;;;;;5015935;28;20030;-65
2022/01/30 09:12:08;;;;;;;7.45;2.25;;;17.80;40.00;;;;;;5015752;28;20108;-65
2022/01/30 09:14:38;;;;;;;5.97;2.08;;;17.90;39.70;;;;;;5015660;28;20032;-65
2022/01/30 09:17:11;;;;;;;5.75;2.00;;;18.00;39.60;;;;;;5014881;28;20093;-65
2022/01/30 09:19:37;;;;;;;5.95;2.10;;;18.00;39.30;;;;;;4998882;28;20600;-64
2022/01/30 09:22:03;;;;;;;7.72;2.38;;;18.10;39.20;;;;;;5015516;28;20034;-64
2022/01/30 09:24:30;;;;;;;5.70;1.90;;;18.20;39.00;;;;;;5015353;28;20491;-65
2022/01/30 09:26:57;;;;;;;5.53;1.95;;;18.20;38.90;;;;;;5014480;28;20018;-65
2022/01/30 09:29:23;;;;;;;6.65;2.38;;;18.30;38.80;;;;;;5014146;28;20441;-64
2022/01/30 09:31:49;;;;;;;5.93;2.00;;;18.40;38.70;;;;;;5014216;28;20017;-64
2022/01/30 09:34:15;;;;;;;7.78;2.70;;;18.40;38.50;;;;;;5014272;28;20021;-64
2022/01/30 09:36:41;;;;;;;6.88;2.70;;;18.50;38.50;;;;;;5030376;28;20018;-65
2022/01/30 09:39:06;;;;;;;5.97;2.40;;;18.50;38.30;;;;;;5014090;28;20030;-66
2022/01/30 09:41:33;;;;;;;6.97;2.20;;;18.60;38.20;;;;;;4997384;28;20064;-66
2022/01/30 09:44:00;;;;;;;7.47;2.40;;;18.60;38.10;;;;;;5014043;28;20025;-66
2022/01/30 09:46:28;;;;;;;5.43;1.98;;;18.70;38.00;;;;;;5013974;28;20085;-66
2022/01/30 09:48:54;;;;;;;6.05;2.03;;;18.70;37.90;;;;;;5015039;28;20486;-66
2022/01/30 09:51:20;;;;;;;6.53;2.33;;;18.80;37.80;;;;;;5013743;28;20378;-66
2022/01/30 09:53:48;;;;;;;5.43;2.17;;;18.80;37.70;;;;;;5014980;28;20504;-66
2022/01/30 09:56:14;;;;;;;5.20;1.80;;;18.90;37.60;;;;;;5030142;28;20018;-66
2022/01/30 09:58:40;;;;;;;6.68;2.13;;;18.90;37.50;;;;;;5013775;28;20018;-67
2022/01/30 10:01:06;;;;;;;5.63;2.22;;;19.00;37.50;;;;;;4997921;28;20100;-66
2022/01/30 10:03:32;;;;;;;5.32;2.05;;;19.00;37.40;;;;;;5014509;28;20026;-66
2022/01/30 10:06:14;;;;;;;7.68;2.17;;;19.00;37.30;;;;;;5015489;28;20101;-66
2022/01/30 10:08:46;;;;;;;6.38;2.33;;;19.10;37.30;;;;;;5014090;28;20006;-66
2022/01/30 10:11:37;;;;;;;6.88;2.45;;;19.10;37.20;;;;;;5013666;28;20018;-65
2022/01/30 10:14:16;;;;;;;7.47;2.53;;;19.10;37.20;;;;;;5013082;28;20396;-67
2022/01/30 10:16:49;;;;;;;6.97;2.47;;;19.10;37.10;;;;;;5014351;28;20018;-66
2022/01/30 10:19:20;;;;;;;7.22;2.67;;;19.10;37.10;;;;;;5013503;28;20064;-66
2022/01/30 10:21:50;;;;;;;7.30;2.13;;;19.10;37.20;;;;;;5029469;28;20033;-66
2022/01/30 10:24:25;;;;;;;6.53;2.15;;;19.10;37.10;;;;;;5013077;28;20010;-66
2022/01/30 10:26:52;;;;;;;8.13;2.65;;;19.10;37.10;;;;;;5013353;28;20028;-66
2022/01/30 10:29:21;;;;;;;5.63;2.20;;;19.10;37.10;;;;;;5014465;28;20018;-66
2022/01/30 10:32:20;;;;;;;5.72;2.00;;;19.10;37.10;;;;;;5029391;28;20060;-65
2022/01/30 10:34:54;;;;;;;5.80;2.20;;;19.10;37.00;;;;;;4973088;28;20038;-66
2022/01/30 10:37:22;;;;;;;5.43;2.20;;;19.20;37.10;;;;;;4956712;28;20030;-66
2022/01/30 10:40:08;;;;;;;6.28;2.20;;;19.20;37.10;;;;;;4973117;28;20034;-66
2022/01/30 10:42:41;;;;;;;6.93;2.33;;;19.20;37.00;;;;;;4972750;28;20035;-66
2022/01/30 10:45:14;;;;;;;5.80;2.20;;;19.20;36.90;;;;;;4972847;28;20173;-66
2022/01/30 10:47:41;;;;;;;5.43;2.20;;;19.20;36.90;;;;;;4972797;28;20015;-65
2022/01/30 10:50:13;;;;;;;6.25;2.47;;;19.20;36.90;;;;;;4972669;28;20094;-66
2022/01/30 10:52:51;;;;;;;7.57;2.72;;;19.20;36.90;;;;;;4972590;28;20089;-65
2022/01/30 10:55:17;;;;;;;7.20;2.58;;;19.20;37.00;;;;;;4972651;28;20019;-66
2022/01/30 10:57:45;;;;;;;6.13;2.33;;;19.20;37.00;;;;;;4972509;28;20035;-65
2022/01/30 11:00:12;;;;;;;5.40;2.20;;;19.20;37.00;;;;;;4972476;28;20031;-65
2022/01/30 11:02:39;;;;;;;6.00;2.20;;;19.10;37.00;;;;;;4956261;28;20039;-65
2022/01/30 11:05:09;;;;;;;6.55;2.38;;;19.10;37.10;;;;;;4956252;28;20031;-65
2022/01/30 11:07:35;;;;;;;7.80;2.50;;;19.00;37.10;;;;;;4972482;28;20202;-65
2022/01/30 11:10:11;;;;;;;5.43;2.17;;;19.00;37.20;;;;;;4975029;28;20021;-65
2022/01/30 11:13:32;;;;;;;5.53;2.10;;;18.90;37.30;;;;;;5013592;28;20026;-66
2022/01/30 11:17:55;;;;;;;5.90;2.20;;;18.80;37.60;;;;;;5012263;28;20088;-66
2022/01/30 11:20:22;;;;;;;6.88;2.55;;;18.80;37.80;;;;;;5013651;28;20022;-65
2022/01/30 11:22:49;;;;;;;7.22;2.15;;;18.70;37.90;;;;;;5013271;28;20109;-66
2022/01/30 11:25:16;;;;;;;7.22;2.40;;;18.70;37.90;;;;;;5013331;28;20025;-67
2022/01/30 11:27:43;;;;;;;6.55;2.30;;;18.70;37.80;;;;;;4996017;28;20021;-68
2022/01/30 11:30:10;;;;;;;7.47;2.70;;;18.70;38.00;;;;;;5012058;28;20041;-68
2022/01/30 11:32:36;;;;;;;7.43;2.60;;;18.70;38.10;;;;;;5012285;28;20021;-67
2022/01/30 11:35:02;;;;;;;6.82;1.98;;;18.60;38.10;;;;;;5013164;28;20101;-67
2022/01/30 11:37:29;;;;;;;7.30;2.28;;;18.60;38.20;;;;;;5011803;28;20516;-67
2022/01/30 11:39:56;;;;;;;7.18;2.42;;;18.50;38.20;;;;;;5011849;28;20022;-66
2022/01/30 11:42:27;;;;;;;8.52;2.80;;;18.50;38.30;;;;;;5011618;28;20057;-66
2022/01/30 11:45:00;;;;;;;7.38;2.50;;;18.40;38.40;;;;;;5011962;28;20054;-67
2022/01/30 11:47:26;;;;;;;7.63;2.60;;;18.40;38.60;;;;;;5013048;28;20018;-66
2022/01/30 11:50:03;;;;;;;4.43;1.95;;;18.30;38.60;;;;;;5011767;28;20038;-67
2022/01/30 11:52:52;;;;;;;6.03;2.15;;;18.20;38.70;;;;;;5011916;28;20014;-68
2022/01/30 11:55:51;;;;;;;6.63;2.47;;;18.20;38.90;;;;;;5013206;28;20068;-67
2022/01/30 11:58:34;;;;;;;6.82;2.63;;;18.10;39.10;;;;;;5011725;28;20054;-66
2022/01/30 12:01:20;;;;;;;6.10;2.60;;;18.00;39.30;;;;;;5011640;28;20010;-67
2022/01/30 12:03:59;;;;;;;7.35;2.92;;;18.00;39.40;;;;;;5005737;28;20124;-67
2022/01/30 12:06:25;;;;;;;5.95;2.38;;;17.90;39.60;;;;;;5027937;28;20053;-66
2022/01/30 12:08:52;;;;;;;7.03;2.08;;;17.80;39.70;;;;;;5012974;28;20026;-66
2022/01/30 12:11:36;;;;;;;7.22;2.55;;;17.80;39.80;;;;;;5011571;28;20067;-67
2022/01/30 12:14:06;;;;;;;6.30;2.40;;;17.80;40.00;;;;;;5012719;28;20041;-67
2022/01/30 12:16:42;;;;;;;6.43;2.30;;;17.70;39.90;;;;;;5012680;28;20018;-66
2022/01/30 12:19:08;;;;;;;6.63;2.47;;;17.70;40.00;;;;;;5012583;28;20049;-67
2022/01/30 12:21:35;;;;;;;8.00;2.50;;;17.70;40.00;;;;;;5012810;28;20030;-67
2022/01/30 12:24:29;;;;;;;6.60;2.40;;;17.60;40.10;;;;;;5012819;28;20018;-67
2022/01/30 12:27:04;;;;;;;8.18;2.70;;;17.60;40.10;;;;;;5012536;28;20053;-67
2022/01/30 12:29:37;;;;;;;7.80;2.25;;;17.60;40.20;;;;;;5012535;28;20018;-67
2022/01/30 12:32:35;;;;;;;6.93;2.35;;;17.60;40.20;;;;;;5012832;28;20048;-67
2022/01/30 12:35:01;;;;;;;5.35;2.15;;;17.60;40.20;;;;;;4972835;28;20039;-67
2022/01/30 12:37:28;;;;;;;7.40;2.88;;;17.60;40.20;;;;;;4975103;28;20031;-67
2022/01/30 12:39:54;;;;;;;6.22;2.03;;;17.60;40.20;;;;;;4975153;28;20113;-67
2022/01/30 12:42:20;;;;;;;6.95;2.50;;;17.60;40.20;;;;;;4958716;28;20456;-68
2022/01/30 12:44:46;;;;;;;6.75;2.15;;;17.60;40.30;;;;;;4974864;28;20045;-68
2022/01/30 12:47:13;;;;;;;6.78;2.25;;;17.50;40.30;;;;;;4958873;28;20023;-68
2022/01/30 12:49:51;;;;;;;9.90;2.55;;;17.50;40.30;;;;;;4974981;28;20062;-66
2022/01/30 12:52:29;;;;;;;7.22;2.47;;;17.50;40.30;;;;;;4974951;28;20043;-67
2022/01/30 12:55:01;;;;;;;7.20;2.45;;;17.50;40.40;;;;;;4960294;28;20047;-66
2022/01/30 12:57:27;;;;;;;7.28;2.35;;;17.40;40.40;;;;;;4958603;28;20584;-66
2022/01/30 12:59:54;;;;;;;6.35;2.20;;;17.40;40.50;;;;;;4958669;28;20041;-67
2022/01/30 13:02:21;;;;;;;6.05;2.17;;;17.30;40.50;;;;;;4958596;28;20053;-66
2022/01/30 13:04:55;;;;;;;8.65;2.30;;;17.30;40.60;;;;;;4974578;28;20027;-67
2022/01/30 13:07:21;;;;;;;7.10;2.22;;;17.30;40.60;;;;;;4958419;28;20018;-67
2022/01/30 13:09:48;;;;;;;6.57;2.00;;;17.30;40.70;;;;;;4981850;28;20042;-66
2022/01/30 13:12:15;;;;;;;6.93;2.35;;;17.30;40.80;;;;;;5015626;28;20024;-68
2022/01/30 13:14:42;;;;;;;6.78;2.58;;;17.20;40.70;;;;;;5014728;28;20022;-67
2022/01/30 13:17:10;;;;;;;6.07;2.00;;;17.20;40.70;;;;;;5015671;28;20025;-68
2022/01/30 13:19:42;;;;;;;5.55;1.80;;;17.20;40.70;;;;;;5015585;28;20026;-67
2022/01/30 13:22:09;;;;;;;7.30;2.20;;;17.20;40.60;;;;;;5014301;28;20028;-67
2022/01/30 13:24:35;;;;;;;7.55;2.67;;;17.20;40.60;;;;;;4997986;28;20017;-66
2022/01/30 13:29:54;;;;;;;6.30;2.00;;;17.20;40.60;;;;;;5001619;28;20036;-69
2022/01/30 13:32:22;;;;;;;6.55;2.67;;;17.10;40.60;;;;;;4988973;28;20042;-67
2022/01/30 13:34:48;;;;;;;6.55;2.15;;;17.10;40.60;;;;;;4991718;28;20115;-67
2022/01/30 13:37:18;;;;;;;6.57;2.17;;;17.10;40.70;;;;;;5006354;28;20532;-67
2022/01/30 13:39:51;;;;;;;7.35;2.47;;;17.10;40.80;;;;;;4990736;28;20026;-66
2022/01/30 13:42:43;;;;;;;8.23;2.50;;;17.00;40.70;;;;;;4974519;28;20039;-67
2022/01/30 13:47:54;;;;;;;7.97;2.35;;;17.00;40.70;;;;;;4990843;28;20030;-66
2022/01/30 13:50:21;;;;;;;8.85;2.85;;;17.00;40.80;;;;;;5005646;28;20022;-66
2022/01/30 13:52:47;;;;;;;7.90;2.55;;;16.90;40.70;;;;;;5006535;28;20022;-66
2022/01/30 13:55:13;;;;;;;6.55;2.08;;;16.90;40.80;;;;;;4995009;28;20062;-66
2022/01/30 13:57:40;;;;;;;8.30;2.55;;;16.90;40.80;;;;;;4996914;28;20026;-66
2022/01/30 14:00:14;;;;;;;10.00;2.45;;;16.80;40.80;;;;;;4993604;28;20027;-66
2022/01/30 14:03:00;;;;;;;8.07;2.10;;;16.90;40.90;;;;;;4993144;28;20034;-68